Time;durP1;ratioP1;P1;durP2;ratioP2;P2;SDS_P1;SDS_P2;PMS_P1;PMS_P2;Temp;Humidity;BMP_temperature;BMP_pressure;BME280_temperature;BME280_humidity;BME280_pressure;Samples;Min_cycle;Max_cycle;Signal;HPM_P1;HPM_P2
2023/04/29 00:00:20;;;;;;;8.57;4.63;;;;;;;10.88;75.14;100419.53;5010885;28;20231;-70
2023/04/29 00:02:46;;;;;;;5.87;4.57;;;;;;;10.87;75.52;100423.28;5009466;28;20197;-71
2023/04/29 00:05:13;;;;;;;5.80;4.90;;;;;;;10.87;75.36;100423.28;5013201;28;20291;-71
2023/04/29 00:07:39;;;;;;;7.07;4.60;;;;;;;10.85;74.43;100411.50;5016206;28;20216;-71
2023/04/29 00:10:06;;;;;;;7.57;4.60;;;;;;;10.85;75.41;100414.16;5012995;28;20729;-70
2023/04/29 00:12:32;;;;;;;7.30;4.70;;;;;;;10.84;75.45;100410.75;5012649;28;20225;-71
2023/04/29 00:14:59;;;;;;;8.00;4.70;;;;;;;10.83;76.01;100411.84;5013483;28;20601;-70
2023/04/29 00:17:27;;;;;;;6.20;4.57;;;;;;;10.82;75.58;100409.53;5012993;28;20210;-71
2023/04/29 00:19:53;;;;;;;5.77;4.37;;;;;;;10.81;76.24;100410.66;5015519;28;20224;-71
2023/04/29 00:22:20;;;;;;;6.90;4.70;;;;;;;10.79;75.53;100400.41;5016228;28;20215;-71
2023/04/29 00:24:47;;;;;;;6.53;4.90;;;;;;;10.79;75.11;100397.78;5015209;28;20735;-71
2023/04/29 00:27:13;;;;;;;9.13;4.30;;;;;;;10.78;74.90;100396.22;5017029;28;20207;-70
2023/04/29 00:29:39;;;;;;;5.10;4.30;;;;;;;10.78;75.34;100398.09;4998709;28;20737;-71
2023/04/29 00:32:06;;;;;;;6.10;5.00;;;;;;;10.78;75.65;100400.72;5015243;28;20216;-70
2023/04/29 00:34:34;;;;;;;7.23;5.40;;;;;;;10.78;74.99;100395.44;5012083;28;20276;-71
2023/04/29 00:37:02;;;;;;;9.23;5.60;;;;;;;10.77;75.00;100392.03;4993186;28;20246;-71
2023/04/29 00:39:29;;;;;;;7.57;4.97;;;;;;;10.79;76.16;100391.69;5011280;28;20286;-71
2023/04/29 00:41:55;;;;;;;5.00;4.50;;;;;;;10.80;75.52;100398.53;4996253;28;20220;-70
2023/04/29 00:44:22;;;;;;;5.53;4.70;;;;;;;10.81;75.71;100394.81;4998118;28;20223;-71
2023/04/29 00:46:48;;;;;;;7.87;5.37;;;;;;;10.81;75.60;100392.16;4999878;28;20242;-71
2023/04/29 00:49:14;;;;;;;5.77;4.97;;;;;;;10.83;75.38;100392.59;5002913;28;20314;-70
2023/04/29 00:51:44;;;;;;;7.70;5.30;;;;;;;10.82;75.41;100385.78;5015184;28;20687;-71
2023/04/29 00:54:11;;;;;;;6.63;4.50;;;;;;;10.83;75.67;100390.72;4997808;28;20216;-70
2023/04/29 00:56:40;;;;;;;6.67;5.40;;;;;;;10.83;75.74;100387.31;4997336;28;20314;-70
2023/04/29 00:59:08;;;;;;;7.20;5.10;;;;;;;10.82;75.91;100389.16;5015118;28;20215;-71
2023/04/29 01:01:35;;;;;;;6.87;4.87;;;;;;;10.83;75.48;100388.09;5016024;28;20215;-71
2023/04/29 01:04:02;;;;;;;5.67;4.77;;;;;;;10.84;75.50;100383.56;4999946;28;20590;-71
2023/04/29 01:06:36;;;;;;;7.23;5.33;;;;;;;10.83;75.99;100379.38;4999988;28;20204;-71
2023/04/29 01:09:20;;;;;;;7.33;5.33;;;;;;;10.83;75.40;100376.75;5013819;28;20216;-70
2023/04/29 01:12:01;;;;;;;7.57;5.13;;;;;;;10.83;75.63;100384.66;4998342;28;20578;-70
2023/04/29 01:14:28;;;;;;;6.27;5.13;;;;;;;10.81;75.51;100382.34;4996022;28;20227;-71
2023/04/29 01:17:00;;;;;;;7.23;5.50;;;;;;;10.82;75.28;100373.31;5001284;28;20469;-70
2023/04/29 01:19:40;;;;;;;6.43;5.33;;;;;;;10.82;76.23;100381.25;4999895;28;20691;-71
2023/04/29 01:22:07;;;;;;;7.03;5.53;;;;;;;10.82;75.83;100381.25;4996378;28;20208;-71
2023/04/29 01:24:35;;;;;;;7.93;5.17;;;;;;;10.83;76.50;100374.09;4994925;28;20752;-71
2023/04/29 01:27:10;;;;;;;7.30;5.80;;;;;;;10.83;76.16;100377.53;4991008;28;20214;-71
2023/04/29 01:29:51;;;;;;;8.53;6.03;;;;;;;10.83;75.23;100384.66;4995676;28;20231;-70
2023/04/29 01:32:23;;;;;;;6.63;5.90;;;;;;;10.83;75.81;100384.66;5010795;28;20217;-70
2023/04/29 01:34:55;;;;;;;9.43;6.17;;;;;;;10.83;76.00;100385.44;5009276;28;20258;-71
2023/04/29 01:37:33;;;;;;;10.20;5.63;;;;;;;10.83;76.06;100384.66;5011318;28;20214;-71
2023/04/29 01:40:12;;;;;;;9.00;5.80;;;;;;;10.82;75.94;100383.13;5014834;28;20228;-70
2023/04/29 01:42:46;;;;;;;8.90;5.90;;;;;;;10.81;76.15;100379.72;5010715;28;20716;-71
2023/04/29 01:45:16;;;;;;;8.93;6.23;;;;;;;10.81;76.43;100385.00;5012030;28;20227;-71
2023/04/29 01:47:45;;;;;;;7.53;6.00;;;;;;;10.80;75.67;100382.66;4994405;28;20689;-70
2023/04/29 01:50:11;;;;;;;12.83;6.17;;;;;;;10.79;76.06;100384.56;4993645;28;20234;-70
2023/04/29 01:52:38;;;;;;;10.30;5.97;;;;;;;10.80;76.38;100380.03;4995848;28;20286;-71
2023/04/29 01:55:07;;;;;;;7.63;5.97;;;;;;;10.79;75.81;100373.22;5013775;28;20223;-71
2023/04/29 01:57:51;;;;;;;8.97;5.90;;;;;;;10.80;75.83;100378.16;5009228;28;20220;-70
2023/04/29 02:00:44;;;;;;;10.20;6.73;;;;;;;10.79;76.66;100373.22;4992854;28;20364;-71
2023/04/29 02:03:11;;;;;;;8.50;6.10;;;;;;;10.79;75.67;100376.63;4989551;28;20647;-71
2023/04/29 02:05:40;;;;;;;8.20;6.23;;;;;;;10.79;76.27;100378.50;5013424;28;20317;-70
2023/04/29 02:08:07;;;;;;;9.53;6.23;;;;;;;10.78;76.06;100374.31;5001653;28;20313;-70
2023/04/29 02:10:39;;;;;;;7.53;5.90;;;;;;;10.80;75.58;100369.47;5013796;28;20268;-70
2023/04/29 02:13:24;;;;;;;9.53;6.17;;;;;;;10.79;75.99;100370.56;4996572;28;20588;-70
2023/04/29 02:15:50;;;;;;;9.80;6.47;;;;;;;10.79;75.64;100381.13;4994818;28;20339;-71
2023/04/29 02:18:17;;;;;;;8.97;6.20;;;;;;;10.80;75.66;100380.81;4997495;28;20215;-70
2023/04/29 02:20:43;;;;;;;9.37;6.30;;;;;;;10.81;75.95;100376.31;5002102;28;20306;-70
2023/04/29 02:23:10;;;;;;;9.20;6.27;;;;;;;10.81;75.81;100373.66;5017360;28;20199;-70
2023/04/29 02:25:37;;;;;;;9.43;6.57;;;;;;;10.81;76.11;100381.59;5002738;28;20318;-71
2023/04/29 02:28:04;;;;;;;7.13;6.17;;;;;;;10.81;76.63;100377.06;5001758;28;20211;-70
2023/04/29 02:30:31;;;;;;;12.73;7.53;;;;;;;10.82;75.91;100372.56;5013239;28;20334;-70
2023/04/29 02:32:57;;;;;;;8.33;6.50;;;;;;;10.81;75.46;100382.34;4998636;28;20645;-71
2023/04/29 02:35:23;;;;;;;11.43;7.50;;;;;;;10.81;75.69;100377.06;4997609;28;20239;-71
2023/04/29 02:37:50;;;;;;;9.43;6.70;;;;;;;10.81;75.92;100387.63;5011837;28;20223;-70
2023/04/29 02:40:16;;;;;;;8.90;7.13;;;;;;;10.81;75.72;100381.59;5017080;28;20326;-71
2023/04/29 02:42:43;;;;;;;11.43;6.97;;;;;;;10.82;75.28;100391.06;5017378;28;20204;-71
2023/04/29 02:45:11;;;;;;;12.57;6.73;;;;;;;10.82;76.96;100391.81;4999950;28;20528;-71
2023/04/29 02:47:37;;;;;;;10.27;7.17;;;;;;;10.83;77.20;100389.94;5016184;28;20188;-71
2023/04/29 02:50:05;;;;;;;10.27;7.33;;;;;;;10.85;77.01;100391.16;5035555;23;20235;-72
2023/04/29 02:52:32;;;;;;;10.80;7.13;;;;;;;10.85;76.95;100391.16;4962614;28;20745;-70
2023/04/29 02:54:58;;;;;;;12.00;8.30;;;;;;;10.88;77.06;100389.72;4963542;28;20225;-70
2023/04/29 02:57:25;;;;;;;9.50;7.70;;;;;;;10.89;76.56;100389.41;4978910;28;20206;-71
2023/04/29 02:59:51;;;;;;;11.33;7.70;;;;;;;10.91;76.79;100396.97;4963891;28;21593;-70
2023/04/29 03:02:18;;;;;;;15.67;8.03;;;;;;;10.92;77.77;100394.00;4974695;28;20198;-70
2023/04/29 03:04:49;;;;;;;9.77;7.70;;;;;;;10.92;77.93;100395.91;4961213;28;20197;-70
2023/04/29 03:07:15;;;;;;;12.30;7.43;;;;;;;10.94;78.29;100406.88;4979680;28;20655;-70
2023/04/29 03:09:42;;;;;;;17.63;8.67;;;;;;;10.92;79.92;100394.00;4960571;28;20252;-71
2023/04/29 03:12:08;;;;;;;14.40;7.70;;;;;;;10.92;80.42;100393.25;4961611;28;20739;-70
2023/04/29 03:14:35;;;;;;;10.53;7.10;;;;;;;10.90;80.29;100400.72;4958628;28;20522;-70
2023/04/29 03:17:02;;;;;;;13.73;8.53;;;;;;;10.88;80.67;100392.38;4970904;28;20208;-70
2023/04/29 03:19:30;;;;;;;13.73;7.80;;;;;;;10.89;80.81;100397.31;4974970;28;20201;-70
2023/04/29 03:21:56;;;;;;;14.20;8.80;;;;;;;10.87;80.88;100390.84;4955939;28;20229;-70
2023/04/29 03:24:23;;;;;;;11.73;7.93;;;;;;;10.85;80.31;100385.09;4963104;28;20778;-70
2023/04/29 03:26:49;;;;;;;15.63;8.17;;;;;;;10.83;81.27;100379.38;4973567;28;20228;-70
2023/04/29 03:29:20;;;;;;;9.70;7.00;;;;;;;10.81;80.70;100373.66;4959604;28;20216;-70
2023/04/29 03:31:46;;;;;;;12.23;7.40;;;;;;;10.78;81.23;100372.47;4979724;28;20328;-70
2023/04/29 03:34:13;;;;;;;12.67;8.53;;;;;;;10.76;80.81;100385.22;4976141;28;20209;-70
2023/04/29 03:36:43;;;;;;;11.80;8.20;;;;;;;10.74;81.00;100374.22;4955552;28;20331;-70
2023/04/29 03:39:10;;;;;;;14.33;8.57;;;;;;;10.72;80.70;100370.38;4958907;28;20212;-70
2023/04/29 03:41:37;;;;;;;11.07;7.83;;;;;;;10.70;80.58;100380.47;4956194;28;20581;-70
2023/04/29 03:44:03;;;;;;;15.47;8.57;;;;;;;10.70;80.85;100383.13;4957442;28;20222;-70
2023/04/29 03:46:30;;;;;;;13.80;8.63;;;;;;;10.68;80.63;100377.41;4962258;28;20215;-70
2023/04/29 03:48:56;;;;;;;10.80;8.40;;;;;;;10.68;80.86;100383.47;4960259;28;20202;-70
2023/04/29 03:51:24;;;;;;;12.80;8.80;;;;;;;10.69;80.62;100385.00;4957612;28;20235;-69
2023/04/29 03:53:56;;;;;;;13.37;8.47;;;;;;;10.69;80.43;100381.56;4956235;28;20217;-70
2023/04/29 03:56:24;;;;;;;12.93;8.20;;;;;;;10.71;81.72;100379.41;4958416;28;20755;-70
2023/04/29 03:58:50;;;;;;;12.13;8.30;;;;;;;10.71;81.48;100382.78;4972914;28;20245;-70
2023/04/29 04:01:17;;;;;;;10.87;8.37;;;;;;;10.73;81.38;100390.38;4957176;28;20252;-70
2023/04/29 04:03:45;;;;;;;9.07;7.37;;;;;;;10.76;80.38;100400.31;4956840;28;20980;-70
2023/04/29 04:06:12;;;;;;;12.87;8.23;;;;;;;10.75;81.16;100388.97;4972861;28;20208;-70
2023/04/29 04:08:39;;;;;;;12.10;8.57;;;;;;;10.78;81.54;100398.09;4975926;28;20240;-70
2023/04/29 04:11:25;;;;;;;13.70;8.87;;;;;;;10.79;81.60;100396.97;4974753;28;20536;-70
2023/04/29 04:13:56;;;;;;;10.90;7.80;;;;;;;10.80;81.76;100395.88;4975048;28;20205;-70
2023/04/29 04:16:24;;;;;;;9.43;7.47;;;;;;;10.81;81.65;100398.19;4978179;28;20308;-70
2023/04/29 04:18:51;;;;;;;11.57;7.97;;;;;;;10.82;81.91;100394.44;4975286;28;20282;-70
2023/04/29 04:21:18;;;;;;;12.63;8.87;;;;;;;10.83;81.31;100398.66;4959949;28;20290;-70
2023/04/29 04:23:51;;;;;;;13.57;8.60;;;;;;;10.85;81.42;100407.00;4955515;28;20197;-70
2023/04/29 04:26:21;;;;;;;10.87;8.17;;;;;;;10.87;82.48;100404.03;4957182;28;20209;-70
2023/04/29 04:29:11;;;;;;;11.90;7.83;;;;;;;10.88;81.99;100400.28;4972413;28;20307;-70
2023/04/29 04:32:04;;;;;;;11.30;7.53;;;;;;;10.89;82.45;100404.47;4968731;28;20585;-70
2023/04/29 04:34:31;;;;;;;10.77;7.83;;;;;;;10.91;82.36;100407.53;4954448;28;20295;-70
2023/04/29 04:37:00;;;;;;;12.60;8.33;;;;;;;10.92;82.72;100396.66;4954919;28;20240;-70
2023/04/29 04:39:27;;;;;;;14.50;9.03;;;;;;;10.95;82.87;100403.91;4959540;28;20201;-70
2023/04/29 04:41:56;;;;;;;13.03;8.63;;;;;;;10.98;82.74;100405.13;4953046;28;20815;-69
2023/04/29 04:44:24;;;;;;;14.10;9.47;;;;;;;11.00;83.15;100398.41;4956264;28;20200;-69
2023/04/29 04:46:59;;;;;;;15.13;10.33;;;;;;;11.03;82.94;100407.53;4954209;28;20201;-70
2023/04/29 04:49:51;;;;;;;14.23;9.60;;;;;;;11.05;83.38;100405.34;4956073;28;20304;-71
2023/04/29 04:52:20;;;;;;;13.03;9.60;;;;;;;11.07;83.11;100401.25;4972416;28;20313;-70
2023/04/29 04:54:49;;;;;;;16.03;9.80;;;;;;;11.11;82.82;100402.13;4972736;28;20797;-70
2023/04/29 04:57:22;;;;;;;18.33;10.60;;;;;;;11.15;83.45;100404.88;4954440;28;20209;-71
2023/04/29 04:59:49;;;;;;;17.80;10.03;;;;;;;11.17;82.98;100408.72;4969043;28;20209;-71
2023/04/29 05:02:17;;;;;;;16.40;10.00;;;;;;;11.22;83.75;100405.09;4954372;28;20557;-70
2023/04/29 05:04:43;;;;;;;14.73;9.73;;;;;;;11.25;84.02;100405.22;4956467;28;20551;-70
2023/04/29 05:07:11;;;;;;;17.77;9.93;;;;;;;11.29;83.16;100405.31;4967378;28;20493;-70
2023/04/29 05:09:57;;;;;;;14.13;9.57;;;;;;;11.37;83.80;100409.69;4969957;28;20233;-70
2023/04/29 05:12:29;;;;;;;14.03;10.30;;;;;;;11.41;83.69;100411.34;4968502;28;20291;-70
2023/04/29 05:14:57;;;;;;;14.70;9.83;;;;;;;11.46;84.57;100407.69;4953489;28;20691;-70
2023/04/29 05:17:25;;;;;;;16.00;10.40;;;;;;;11.50;84.84;100417.25;4952567;28;20232;-71
2023/04/29 05:19:52;;;;;;;14.77;10.13;;;;;;;11.51;83.94;100410.09;4972245;28;20301;-71
2023/04/29 05:22:18;;;;;;;17.17;10.33;;;;;;;11.52;83.46;100415.06;4951733;28;20221;-70
2023/04/29 05:24:47;;;;;;;13.93;9.37;;;;;;;11.54;84.10;100418.13;4957354;28;20212;-70
2023/04/29 05:27:13;;;;;;;17.30;9.87;;;;;;;11.55;83.62;100413.63;4956897;28;20206;-70
2023/04/29 05:29:40;;;;;;;13.67;9.43;;;;;;;11.57;82.95;100416.69;4958232;28;20213;-70
2023/04/29 05:32:08;;;;;;;13.97;9.83;;;;;;;11.58;83.24;100419.00;4955711;28;20315;-70
2023/04/29 05:34:34;;;;;;;14.80;9.30;;;;;;;11.61;84.18;100410.44;4956249;28;20292;-70
2023/04/29 05:37:01;;;;;;;15.87;10.17;;;;;;;11.63;83.32;100421.44;4967748;28;20256;-70
2023/04/29 05:39:29;;;;;;;15.70;9.90;;;;;;;11.67;84.17;100419.66;4971867;28;20463;-70
2023/04/29 05:42:05;;;;;;;17.30;10.57;;;;;;;11.71;83.30;100419.75;4950995;28;20235;-70
2023/04/29 05:44:38;;;;;;;14.30;9.90;;;;;;;11.75;83.97;100415.34;4955687;28;20216;-70
2023/04/29 05:47:05;;;;;;;15.80;9.60;;;;;;;11.80;84.44;100425.69;4971425;28;20225;-70
2023/04/29 05:49:35;;;;;;;16.50;9.60;;;;;;;11.83;83.54;100431.06;4969306;28;20217;-70
2023/04/29 05:52:05;;;;;;;15.43;9.97;;;;;;;11.87;84.24;100437.22;4959397;28;20281;-70
2023/04/29 05:54:38;;;;;;;17.83;9.83;;;;;;;11.92;83.71;100434.34;4976091;28;20204;-70
2023/04/29 05:57:04;;;;;;;14.00;9.63;;;;;;;11.97;84.03;100434.09;4977330;28;20224;-70
2023/04/29 05:59:32;;;;;;;15.27;9.77;;;;;;;12.03;84.09;100435.41;4979144;28;20946;-70
2023/04/29 06:02:01;;;;;;;16.03;9.50;;;;;;;12.10;83.77;100440.09;4959504;28;20224;-70
2023/04/29 06:04:28;;;;;;;15.80;8.93;;;;;;;12.15;84.48;100445.13;4975200;28;21971;-71
2023/04/29 06:07:20;;;;;;;13.40;9.00;;;;;;;12.22;83.97;100432.84;4958870;28;20222;-70
2023/04/29 06:09:55;;;;;;;17.47;10.13;;;;;;;12.30;83.69;100439.09;4978142;28;20515;-70
2023/04/29 06:12:22;;;;;;;16.13;10.37;;;;;;;12.36;84.59;100437.75;4961848;28;20203;-70
2023/04/29 06:14:49;;;;;;;12.90;9.07;;;;;;;12.44;84.25;100436.81;4980498;28;20742;-70
2023/04/29 06:17:15;;;;;;;15.00;9.80;;;;;;;12.52;84.28;100435.91;4970909;28;20239;-70
2023/04/29 06:19:42;;;;;;;14.30;9.97;;;;;;;12.57;83.87;100441.69;4962454;28;20215;-70
2023/04/29 06:22:09;;;;;;;13.23;9.00;;;;;;;12.61;83.88;100447.06;4977866;28;20226;-70
2023/04/29 06:24:40;;;;;;;15.40;9.37;;;;;;;12.66;83.66;100439.66;4961609;28;20215;-70
2023/04/29 06:27:07;;;;;;;14.27;9.47;;;;;;;12.70;83.83;100442.38;4959273;28;20234;-70
2023/04/29 06:29:34;;;;;;;12.00;8.27;;;;;;;12.73;83.52;100441.72;4960558;28;20852;-70
2023/04/29 06:32:01;;;;;;;12.20;8.37;;;;;;;12.74;83.12;100449.28;4957174;28;20215;-70
2023/04/29 06:34:28;;;;;;;12.33;8.17;;;;;;;12.75;83.30;100450.06;4976827;28;20215;-70
2023/04/29 06:37:13;;;;;;;13.40;8.27;;;;;;;12.75;82.78;100453.50;4971375;28;20242;-72
2023/04/29 06:39:57;;;;;;;12.13;7.87;;;;;;;12.77;82.54;100456.56;4964530;28;20208;-72
2023/04/29 06:42:39;;;;;;;13.73;8.07;;;;;;;12.82;83.11;100452.88;4959692;28;20573;-70
2023/04/29 06:45:24;;;;;;;11.27;8.90;;;;;;;12.87;82.72;100449.97;4977439;28;20288;-70
2023/04/29 06:48:08;;;;;;;11.57;7.67;;;;;;;12.92;82.79;100455.81;4957930;28;20759;-70
2023/04/29 06:50:51;;;;;;;13.13;8.77;;;;;;;12.97;82.58;100457.44;4962608;28;20708;-70
2023/04/29 06:53:17;;;;;;;10.80;7.43;;;;;;;12.98;82.81;100449.16;4979767;28;20618;-70
2023/04/29 06:55:45;;;;;;;11.70;7.53;;;;;;;12.98;82.44;100457.09;4959203;28;20721;-70
2023/04/29 06:58:12;;;;;;;11.90;8.60;;;;;;;12.98;82.92;100459.75;4974567;28;20251;-70
2023/04/29 07:00:40;;;;;;;13.53;8.17;;;;;;;13.02;82.67;100457.97;4960399;28;20220;-70
2023/04/29 07:03:07;;;;;;;14.57;9.50;;;;;;;13.07;83.20;100457.69;4956362;28;20690;-70
2023/04/29 07:05:35;;;;;;;13.47;9.23;;;;;;;13.16;83.69;100454.84;4977623;28;20758;-70
2023/04/29 07:08:02;;;;;;;13.43;9.30;;;;;;;13.25;83.20;100458.09;4976852;28;21164;-70
2023/04/29 07:10:28;;;;;;;16.07;9.90;;;;;;;13.37;83.40;100460.63;4975487;28;20972;-70
2023/04/29 07:12:56;;;;;;;14.80;9.33;;;;;;;13.44;83.40;100466.06;4977666;28;20735;-70
2023/04/29 07:15:23;;;;;;;15.00;10.33;;;;;;;13.53;82.96;100472.75;4976320;28;20201;-70
2023/04/29 07:17:49;;;;;;;14.30;9.43;;;;;;;13.61;82.48;100473.66;4979448;28;20216;-70
2023/04/29 07:20:16;;;;;;;14.50;9.33;;;;;;;13.69;82.68;100473.47;4978958;28;20241;-70
2023/04/29 07:22:43;;;;;;;15.10;9.03;;;;;;;13.75;82.37;100477.38;4960615;28;20678;-70
2023/04/29 07:25:10;;;;;;;13.07;8.93;;;;;;;13.80;81.96;100476.31;4968558;28;20232;-70
2023/04/29 07:27:37;;;;;;;11.77;8.50;;;;;;;13.85;81.86;100476.81;4958444;28;20292;-70
2023/04/29 07:30:08;;;;;;;11.77;8.33;;;;;;;13.90;81.67;100483.72;4957257;28;20220;-71
2023/04/29 07:32:34;;;;;;;10.33;7.43;;;;;;;13.91;81.33;100480.72;4974746;28;20213;-71
2023/04/29 07:35:04;;;;;;;12.10;8.13;;;;;;;13.90;80.76;100478.41;4960544;28;20762;-71
2023/04/29 07:37:30;;;;;;;11.97;8.13;;;;;;;13.91;80.79;100477.28;4957688;28;20351;-70
2023/04/29 07:39:56;;;;;;;11.70;7.97;;;;;;;13.89;80.80;100475.00;4974359;28;20298;-71
2023/04/29 07:42:23;;;;;;;12.23;8.00;;;;;;;13.90;80.86;100481.84;4971829;28;20206;-71
2023/04/29 07:44:51;;;;;;;11.70;8.63;;;;;;;13.88;80.49;100485.97;4974072;28;20271;-71
2023/04/29 07:47:20;;;;;;;13.37;9.40;;;;;;;13.87;80.42;100487.09;4953495;28;20235;-71
2023/04/29 07:49:46;;;;;;;19.97;14.80;;;;;;;13.88;80.22;100485.97;4952136;28;20339;-70
2023/04/29 07:52:12;;;;;;;25.37;17.50;;;;;;;13.85;80.25;100499.91;4971039;28;20216;-72
2023/04/29 07:54:40;;;;;;;13.93;9.60;;;;;;;13.84;80.11;100496.50;4972798;28;20200;-71
2023/04/29 07:57:06;;;;;;;11.87;9.37;;;;;;;13.82;80.41;100495.31;4960155;28;20229;-71
2023/04/29 07:59:33;;;;;;;12.97;9.07;;;;;;;13.75;80.19;100501.25;4960246;28;21851;-71
2023/04/29 08:01:59;;;;;;;13.87;10.97;;;;;;;13.74;80.33;100497.06;4969441;28;20231;-71
2023/04/29 08:04:27;;;;;;;15.50;11.37;;;;;;;13.73;80.47;100498.19;4968929;28;20209;-71
2023/04/29 08:06:59;;;;;;;14.47;10.40;;;;;;;13.69;80.61;100501.88;4952983;28;20206;-71
2023/04/29 08:09:26;;;;;;;13.20;8.83;;;;;;;13.64;80.46;100505.56;4972676;28;20209;-71
2023/04/29 08:11:52;;;;;;;14.53;10.47;;;;;;;13.66;80.67;100507.88;4970304;28;20249;-70
2023/04/29 08:14:18;;;;;;;15.97;10.03;;;;;;;13.71;80.93;100500.41;4956515;28;20221;-70
2023/04/29 08:16:45;;;;;;;15.23;10.33;;;;;;;13.80;81.19;100508.16;4953941;28;20569;-70
2023/04/29 08:19:11;;;;;;;18.87;11.93;;;;;;;13.86;80.66;100512.06;4953634;28;20875;-70
2023/04/29 08:21:39;;;;;;;16.83;10.57;;;;;;;13.90;80.07;100519.00;4953143;28;20222;-70
2023/04/29 08:24:05;;;;;;;15.80;10.57;;;;;;;13.97;80.02;100518.38;4974839;28;21169;-71
2023/04/29 08:26:32;;;;;;;16.00;10.30;;;;;;;14.04;79.75;100521.19;4972593;28;20545;-70
2023/04/29 08:28:58;;;;;;;15.73;10.67;;;;;;;14.10;79.46;100523.22;4974475;28;20225;-70
2023/04/29 08:31:25;;;;;;;15.33;10.17;;;;;;;14.13;78.88;100519.09;4975483;28;20229;-70
2023/04/29 08:33:52;;;;;;;15.40;10.20;;;;;;;14.14;78.54;100525.94;4974818;28;20202;-70
2023/04/29 08:36:18;;;;;;;13.20;9.47;;;;;;;14.13;78.34;100522.50;4975532;28;20285;-70
2023/04/29 08:38:47;;;;;;;17.03;9.63;;;;;;;14.15;78.49;100532.78;4977051;28;20430;-70
2023/04/29 08:41:15;;;;;;;14.13;9.40;;;;;;;14.16;78.67;100537.75;4975227;28;20225;-70
2023/04/29 08:43:41;;;;;;;14.47;9.53;;;;;;;14.15;78.87;100536.22;4974622;28;20212;-71
2023/04/29 08:46:09;;;;;;;14.90;8.73;;;;;;;14.10;78.37;100539.13;4974416;28;20230;-70
2023/04/29 08:48:38;;;;;;;15.40;9.47;;;;;;;14.02;78.02;100529.47;4973245;28;20619;-70
2023/04/29 08:51:05;;;;;;;16.20;9.87;;;;;;;14.00;78.11;100537.03;4975533;28;20310;-71
2023/04/29 08:53:31;;;;;;;14.53;9.40;;;;;;;13.95;78.31;100539.19;4975888;28;20247;-71
2023/04/29 08:56:03;;;;;;;15.77;9.20;;;;;;;13.90;78.49;100534.16;4970951;28;20205;-71
2023/04/29 08:58:33;;;;;;;16.07;10.33;;;;;;;13.85;78.27;100545.81;4972176;28;20217;-71
2023/04/29 09:01:00;;;;;;;14.40;9.60;;;;;;;13.80;78.41;100538.13;4971580;28;20602;-71
2023/04/29 09:03:29;;;;;;;15.90;9.70;;;;;;;13.83;79.03;100544.63;4973054;28;20221;-71
2023/04/29 09:05:59;;;;;;;16.33;9.20;;;;;;;13.81;79.52;100550.28;4970776;28;20224;-71
2023/04/29 09:08:27;;;;;;;14.00;9.50;;;;;;;13.76;78.85;100555.09;4975009;28;20221;-71
2023/04/29 09:10:53;;;;;;;15.63;9.57;;;;;;;13.73;79.25;100553.13;4969787;28;20419;-71
2023/04/29 09:13:25;;;;;;;15.47;9.80;;;;;;;13.70;79.31;100554.59;4971565;28;20229;-71
2023/04/29 09:15:52;;;;;;;15.97;9.67;;;;;;;13.63;79.19;100557.09;4974266;28;20235;-71
2023/04/29 09:18:47;;;;;;;15.47;9.93;;;;;;;13.58;79.57;100562.69;4972022;28;20225;-71
2023/04/29 09:21:19;;;;;;;15.70;9.43;;;;;;;13.55;79.26;100570.56;4973321;28;21614;-71
2023/04/29 09:23:46;;;;;;;14.77;9.50;;;;;;;13.52;79.16;100560.63;4973477;28;20603;-72
2023/04/29 09:26:12;;;;;;;13.77;8.30;;;;;;;13.50;79.12;100563.63;4971817;28;20206;-71
2023/04/29 09:28:42;;;;;;;17.10;9.43;;;;;;;13.52;79.71;100564.06;4976404;28;20212;-71
2023/04/29 09:31:09;;;;;;;14.67;8.67;;;;;;;13.51;79.36;100559.09;4970276;28;20252;-71
2023/04/29 09:33:53;;;;;;;15.37;8.90;;;;;;;13.57;79.34;100563.00;4973455;28;20272;-71
2023/04/29 09:36:35;;;;;;;15.53;9.43;;;;;;;13.67;79.44;100573.84;4955573;28;21090;-71
2023/04/29 09:39:02;;;;;;;16.73;9.20;;;;;;;13.78;79.17;100580.19;4962590;28;20640;-71
2023/04/29 09:41:29;;;;;;;15.30;10.00;;;;;;;13.91;79.57;100584.25;4968233;28;20701;-71
2023/04/29 09:44:04;;;;;;;17.43;9.73;;;;;;;14.04;78.10;100584.91;4968930;28;20229;-71
2023/04/29 09:46:32;;;;;;;17.50;9.37;;;;;;;14.14;78.08;100585.13;4972302;28;20639;-71
2023/04/29 09:48:59;;;;;;;15.83;9.93;;;;;;;14.22;77.42;100592.13;4973078;28;20207;-71
2023/04/29 09:51:25;;;;;;;13.47;8.60;;;;;;;14.26;77.92;100593.00;4972495;28;20228;-71
2023/04/29 09:53:51;;;;;;;11.97;8.10;;;;;;;14.27;75.94;100597.19;4972692;28;20217;-71
2023/04/29 09:56:18;;;;;;;14.10;8.70;;;;;;;14.29;76.32;100592.28;4972574;28;20527;-71
2023/04/29 09:58:44;;;;;;;12.77;8.23;;;;;;;14.33;75.87;100595.03;4973952;28;20590;-72
2023/04/29 10:01:16;;;;;;;13.37;8.67;;;;;;;14.38;76.21;100598.16;4972653;28;20239;-71
2023/04/29 10:03:43;;;;;;;11.87;7.83;;;;;;;14.39;77.27;100604.25;4974479;28;20223;-71
2023/04/29 10:06:10;;;;;;;11.20;8.03;;;;;;;14.33;75.69;100603.75;4973646;28;20216;-71
2023/04/29 10:08:40;;;;;;;12.03;7.20;;;;;;;14.31;75.65;100602.56;4976261;28;20204;-71
2023/04/29 10:11:06;;;;;;;13.17;8.03;;;;;;;14.25;75.94;100602.09;4973753;28;20240;-71
2023/04/29 10:13:37;;;;;;;11.90;7.83;;;;;;;14.22;75.82;100608.06;4975670;28;20214;-71
2023/04/29 10:16:14;;;;;;;13.23;9.13;;;;;;;14.19;75.63;100614.06;4971067;28;20274;-71
2023/04/29 10:18:48;;;;;;;13.27;7.77;;;;;;;14.11;76.15;100619.56;4975678;28;20226;-71
2023/04/29 10:21:18;;;;;;;11.43;7.13;;;;;;;14.05;76.00;100627.03;4967843;28;20227;-71
2023/04/29 10:23:45;;;;;;;7.70;4.80;;;;;;;13.98;75.48;100634.84;4974178;28;20263;-71
2023/04/29 10:26:13;;;;;;;6.53;4.30;;;;;;;13.82;75.46;100628.78;4972575;28;20271;-71
2023/04/29 10:28:42;;;;;;;5.80;3.97;;;;;;;13.75;74.52;100631.28;4972992;28;20253;-71
2023/04/29 10:31:09;;;;;;;6.40;4.57;;;;;;;13.75;75.46;100628.63;4974578;28;20259;-71
2023/04/29 10:33:36;;;;;;;7.10;4.80;;;;;;;13.75;75.16;100635.81;4971297;28;20289;-71
2023/04/29 10:36:04;;;;;;;5.63;3.93;;;;;;;13.80;75.69;100633.69;4974773;28;20237;-71
2023/04/29 10:38:36;;;;;;;4.73;3.67;;;;;;;13.83;76.09;100635.66;4975187;28;20209;-71
2023/04/29 10:41:07;;;;;;;7.17;3.90;;;;;;;13.86;74.86;100636.81;4975111;28;20244;-71
2023/04/29 10:43:33;;;;;;;5.17;3.50;;;;;;;13.85;74.26;100643.25;4977097;28;20219;-71
2023/04/29 10:46:17;;;;;;;6.47;3.40;;;;;;;13.86;75.79;100648.22;4979020;28;20582;-71
2023/04/29 10:48:44;;;;;;;4.93;3.07;;;;;;;13.77;74.58;100647.63;4977347;28;20198;-71
2023/04/29 10:51:11;;;;;;;3.63;2.70;;;;;;;13.76;77.04;100651.41;4976848;28;20239;-71
2023/04/29 10:54:00;;;;;;;3.53;2.60;;;;;;;13.58;74.60;100649.44;4978278;28;20220;-71
2023/04/29 10:56:36;;;;;;;4.37;3.13;;;;;;;13.46;75.18;100658.25;4974043;28;20763;-72
2023/04/29 10:59:02;;;;;;;15.43;6.80;;;;;;;13.40;75.92;100669.47;4976429;28;20245;-72
2023/04/29 11:01:42;;;;;;;16.40;8.30;;;;;;;13.24;77.19;100666.81;4974391;28;20221;-71
2023/04/29 11:04:09;;;;;;;4.10;3.03;;;;;;;13.11;77.66;100669.88;4974896;28;20206;-71
2023/04/29 11:06:42;;;;;;;6.03;3.80;;;;;;;13.06;78.39;100681.50;4971699;28;22688;-71
2023/04/29 11:09:12;;;;;;;4.53;3.60;;;;;;;12.97;78.85;100680.09;4973993;28;20722;-71
2023/04/29 11:11:43;;;;;;;8.53;5.43;;;;;;;12.90;79.01;100685.97;4973097;28;20342;-71
2023/04/29 11:14:10;;;;;;;9.33;6.37;;;;;;;12.83;78.84;100680.44;4974681;28;20220;-71
2023/04/29 11:16:37;;;;;;;11.17;7.53;;;;;;;12.84;78.67;100689.19;4975298;28;20296;-71
2023/04/29 11:19:06;;;;;;;11.20;7.53;;;;;;;12.88;79.18;100690.06;4973340;28;20222;-71
2023/04/29 11:21:34;;;;;;;13.57;7.53;;;;;;;12.93;78.94;100690.56;4975113;28;20295;-71
2023/04/29 11:24:02;;;;;;;12.17;8.23;;;;;;;12.97;78.69;100699.41;4977040;28;20212;-71
2023/04/29 11:26:28;;;;;;;13.40;7.83;;;;;;;13.07;79.19;100695.50;4973994;28;20207;-71
2023/04/29 11:28:56;;;;;;;14.20;8.50;;;;;;;13.12;78.10;100697.91;4971840;28;20751;-71